sensor_id;sensor_type;location;lat;lon;timestamp;pressure;altitude;pressure_sealevel;temperature;humidity
6425;BME280;12193;42.642;23.384;2023-04-08T00:01:04;94492.78;;;5.44;89.49
6425;BME280;12193;42.642;23.384;2023-04-08T00:03:33;94477.28;;;5.52;89.56
6425;BME280;12193;42.642;23.384;2023-04-08T00:06:03;94486.09;;;5.27;90.82
6425;BME280;12193;42.642;23.384;2023-04-08T03:08:46;94533.47;;;4.80;93.15
6425;BME280;12193;42.642;23.384;2023-04-08T03:11:16;94522.84;;;4.83;92.52
6425;BME280;12193;42.642;23.384;2023-04-08T03:13:47;94526.72;;;4.79;92.73
6425;BME280;12193;42.642;23.384;2023-04-08T03:16:16;94527.81;;;4.84;92.59
6425;BME280;12193;42.642;23.384;2023-04-08T03:18:46;94524.53;;;5.06;91.01
6425;BME280;12193;42.642;23.384;2023-04-08T03:21:15;94526.94;;;5.08;90.18
6425;BME280;12193;42.642;23.384;2023-04-08T03:23:48;94527.44;;;5.03;90.35
6425;BME280;12193;42.642;23.384;2023-04-08T03:26:17;94518.72;;;5.04;90.53
6425;BME280;12193;42.642;23.384;2023-04-08T03:28:47;94536.34;;;4.85;91.37
6425;BME280;12193;42.642;23.384;2023-04-08T03:31:16;94536.41;;;4.61;92.97
6425;BME280;12193;42.642;23.384;2023-04-08T03:33:46;94530.94;;;4.56;93.29
6425;BME280;12193;42.642;23.384;2023-04-08T03:36:15;94533.00;;;4.68;92.72
6425;BME280;12193;42.642;23.384;2023-04-08T03:38:47;94529.94;;;4.73;92.82
6425;BME280;12193;42.642;23.384;2023-04-08T03:41:16;94529.47;;;4.61;93.55
6425;BME280;12193;42.642;23.384;2023-04-08T03:43:46;94532.88;;;4.62;93.97
6425;BME280;12193;42.642;23.384;2023-04-08T03:46:15;94535.13;;;4.57;94.50
6425;BME280;12193;42.642;23.384;2023-04-08T03:48:45;94531.75;;;4.56;95.50
6425;BME280;12193;42.642;23.384;2023-04-08T03:51:14;94532.22;;;4.68;94.82
6425;BME280;12193;42.642;23.384;2023-04-08T03:53:44;94531.25;;;4.69;95.14
6425;BME280;12193;42.642;23.384;2023-04-08T03:56:17;94528.31;;;4.80;94.52
6425;BME280;12193;42.642;23.384;2023-04-08T03:58:46;94521.03;;;4.91;94.42
6425;BME280;12193;42.642;23.384;2023-04-08T04:01:16;94525.66;;;5.04;94.18
6425;BME280;12193;42.642;23.384;2023-04-08T04:03:46;94530.78;;;5.11;92.70
6425;BME280;12193;42.642;23.384;2023-04-08T04:06:15;94525.97;;;5.09;93.44
6425;BME280;12193;42.642;23.384;2023-04-08T04:08:44;94533.34;;;5.11;93.12
6425;BME280;12193;42.642;23.384;2023-04-08T04:11:18;94523.72;;;5.06;93.00
6425;BME280;12193;42.642;23.384;2023-04-08T04:13:47;94521.16;;;5.06;93.05
6425;BME280;12193;42.642;23.384;2023-04-08T04:16:17;94522.44;;;5.10;93.25
6425;BME280;12193;42.642;23.384;2023-04-08T04:18:46;94532.44;;;5.05;93.74
6425;BME280;12193;42.642;23.384;2023-04-08T04:21:16;94534.50;;;5.09;93.11
6425;BME280;12193;42.642;23.384;2023-04-08T04:23:45;94541.44;;;5.09;93.41
6425;BME280;12193;42.642;23.384;2023-04-08T04:26:17;94540.59;;;5.16;92.89
6425;BME280;12193;42.642;23.384;2023-04-08T04:28:46;94539.66;;;5.09;92.88
6425;BME280;12193;42.642;23.384;2023-04-08T04:31:18;94541.25;;;5.18;93.34
6425;BME280;12193;42.642;23.384;2023-04-08T04:33:49;94538.81;;;5.16;93.19
6425;BME280;12193;42.642;23.384;2023-04-08T04:36:18;94539.66;;;5.09;93.73
6425;BME280;12193;42.642;23.384;2023-04-08T04:38:48;94541.72;;;5.13;93.61
6425;BME280;12193;42.642;23.384;2023-04-08T04:41:21;94539.66;;;5.09;94.15
6425;BME280;12193;42.642;23.384;2023-04-08T04:43:50;94537.88;;;5.10;94.93
6425;BME280;12193;42.642;23.384;2023-04-08T04:46:20;94538.22;;;5.07;95.17
6425;BME280;12193;42.642;23.384;2023-04-08T04:48:49;94538.53;;;5.04;96.21
6425;BME280;12193;42.642;23.384;2023-04-08T04:51:18;94536.16;;;4.94;97.09
6425;BME280;12193;42.642;23.384;2023-04-08T04:53:48;94542.72;;;5.05;97.12
6425;BME280;12193;42.642;23.384;2023-04-08T04:56:20;94540.09;;;5.20;95.82
6425;BME280;12193;42.642;23.384;2023-04-08T04:58:50;94545.03;;;5.30;94.81
6425;BME280;12193;42.642;23.384;2023-04-08T05:01:20;94550.53;;;5.27;94.09
6425;BME280;12193;42.642;23.384;2023-04-08T05:03:52;94550.81;;;5.40;93.46
6425;BME280;12193;42.642;23.384;2023-04-08T05:06:22;94549.59;;;5.50;92.72
6425;BME280;12193;42.642;23.384;2023-04-08T05:08:51;94549.44;;;5.52;92.35
6425;BME280;12193;42.642;23.384;2023-04-08T05:11:23;94550.66;;;5.64;91.78
6425;BME280;12193;42.642;23.384;2023-04-08T05:13:53;94556.09;;;5.69;91.96
6425;BME280;12193;42.642;23.384;2023-04-08T05:16:22;94553.66;;;5.75;91.58
6425;BME280;12193;42.642;23.384;2023-04-08T05:18:52;94554.94;;;5.79;90.35
6425;BME280;12193;42.642;23.384;2023-04-08T05:21:21;94545.28;;;5.73;91.33
6425;BME280;12193;42.642;23.384;2023-04-08T05:23:50;94544.41;;;5.89;90.80
6425;BME280;12193;42.642;23.384;2023-04-08T05:26:23;94537.72;;;6.02;89.60
6425;BME280;12193;42.642;23.384;2023-04-08T05:28:52;94544.34;;;6.19;88.96
6425;BME280;12193;42.642;23.384;2023-04-08T05:31:22;94549.16;;;6.22;89.58
6425;BME280;12193;42.642;23.384;2023-04-08T05:33:51;94546.59;;;6.22;88.95
6425;BME280;12193;42.642;23.384;2023-04-08T05:36:20;94549.13;;;6.44;87.85
6425;BME280;12193;42.642;23.384;2023-04-08T05:38:50;94543.38;;;6.57;86.52
6425;BME280;12193;42.642;23.384;2023-04-08T05:41:19;94545.81;;;6.58;87.38
6425;BME280;12193;42.642;23.384;2023-04-08T05:43:51;94549.19;;;6.73;87.30
6425;BME280;12193;42.642;23.384;2023-04-08T05:46:20;94553.13;;;6.84;85.42
6425;BME280;12193;42.642;23.384;2023-04-08T05:48:50;94547.69;;;6.93;83.98
6425;BME280;12193;42.642;23.384;2023-04-08T05:51:19;94549.56;;;7.14;82.38
6425;BME280;12193;42.642;23.384;2023-04-08T05:53:48;94540.66;;;7.30;80.46
6425;BME280;12193;42.642;23.384;2023-04-08T05:56:18;94545.91;;;7.22;82.71
6425;BME280;12193;42.642;23.384;2023-04-08T05:58:49;94540.03;;;7.00;84.36
6425;BME280;12193;42.642;23.384;2023-04-08T06:01:19;94540.28;;;6.61;86.37
6425;BME280;12193;42.642;23.384;2023-04-08T06:03:48;94543.94;;;6.67;85.40
6425;BME280;12193;42.642;23.384;2023-04-08T06:06:17;94545.63;;;6.74;83.44
6425;BME280;12193;42.642;23.384;2023-04-08T06:08:47;94545.31;;;6.92;83.09
6425;BME280;12193;42.642;23.384;2023-04-08T06:11:17;94549.47;;;6.78;82.25
6425;BME280;12193;42.642;23.384;2023-04-08T06:13:46;94545.63;;;6.60;82.26
6425;BME280;12193;42.642;23.384;2023-04-08T06:16:18;94537.81;;;6.68;83.38
6425;BME280;12193;42.642;23.384;2023-04-08T06:18:48;94537.34;;;6.79;82.76
6425;BME280;12193;42.642;23.384;2023-04-08T06:21:17;94546.06;;;6.78;83.24
6425;BME280;12193;42.642;23.384;2023-04-08T06:23:46;94540.88;;;6.63;85.44
6425;BME280;12193;42.642;23.384;2023-04-08T06:26:15;94544.94;;;6.43;88.25
6425;BME280;12193;42.642;23.384;2023-04-08T06:28:45;94544.09;;;6.65;88.22
6425;BME280;12193;42.642;23.384;2023-04-08T06:31:17;94545.13;;;6.93;88.95
6425;BME280;12193;42.642;23.384;2023-04-08T06:33:47;94538.78;;;7.10;88.36
6425;BME280;12193;42.642;23.384;2023-04-08T06:36:17;94542.16;;;7.25;86.91
6425;BME280;12193;42.642;23.384;2023-04-08T06:38:46;94542.38;;;6.80;90.44
6425;BME280;12193;42.642;23.384;2023-04-08T06:41:16;94552.13;;;6.70;91.96
6425;BME280;12193;42.642;23.384;2023-04-08T06:43:46;94557.97;;;7.01;91.66
6425;BME280;12193;42.642;23.384;2023-04-08T06:46:17;94547.00;;;6.99;89.87
6425;BME280;12193;42.642;23.384;2023-04-08T06:48:47;94559.59;;;6.51;92.24
6425;BME280;12193;42.642;23.384;2023-04-08T06:51:16;94555.94;;;6.60;92.22
6425;BME280;12193;42.642;23.384;2023-04-08T06:53:45;94552.22;;;6.77;90.84
6425;BME280;12193;42.642;23.384;2023-04-08T06:56:15;94555.09;;;6.82;90.34
6425;BME280;12193;42.642;23.384;2023-04-08T06:58:46;94554.56;;;7.15;89.69
6425;BME280;12193;42.642;23.384;2023-04-08T07:01:18;94550.88;;;7.53;88.64
6425;BME280;12193;42.642;23.384;2023-04-08T07:03:48;94549.69;;;7.70;86.26
6425;BME280;12193;42.642;23.384;2023-04-08T07:06:17;94551.44;;;7.48;87.02
6425;BME280;12193;42.642;23.384;2023-04-08T07:08:46;94552.00;;;7.15;87.87
6425;BME280;12193;42.642;23.384;2023-04-08T07:11:16;94553.25;;;7.19;88.21
6425;BME280;12193;42.642;23.384;2023-04-08T07:13:46;94552.75;;;7.59;86.81
6425;BME280;12193;42.642;23.384;2023-04-08T07:16:18;94552.81;;;7.65;85.92
6425;BME280;12193;42.642;23.384;2023-04-08T07:18:48;94557.13;;;8.15;84.58
6425;BME280;12193;42.642;23.384;2023-04-08T07:21:18;94562.13;;;8.58;83.01
6425;BME280;12193;42.642;23.384;2023-04-08T07:23:47;94560.94;;;8.54;82.47
6425;BME280;12193;42.642;23.384;2023-04-08T07:26:16;94564.94;;;8.35;83.54
6425;BME280;12193;42.642;23.384;2023-04-08T07:28:46;94566.41;;;8.44;82.95
6425;BME280;12193;42.642;23.384;2023-04-08T07:31:19;94562.22;;;8.43;83.05
6425;BME280;12193;42.642;23.384;2023-04-08T07:33:48;94564.47;;;9.01;80.72
6425;BME280;12193;42.642;23.384;2023-04-08T07:36:17;94563.97;;;9.19;79.30
6425;BME280;12193;42.642;23.384;2023-04-08T07:38:47;94562.47;;;9.37;78.43
6425;BME280;12193;42.642;23.384;2023-04-08T07:41:17;94567.72;;;9.50;76.07
6425;BME280;12193;42.642;23.384;2023-04-08T07:43:46;94566.28;;;9.34;76.89
6425;BME280;12193;42.642;23.384;2023-04-08T07:46:18;94573.00;;;9.63;74.87
6425;BME280;12193;42.642;23.384;2023-04-08T07:48:48;94573.91;;;9.49;74.72
6425;BME280;12193;42.642;23.384;2023-04-08T07:51:17;94586.47;;;9.86;73.94
6425;BME280;12193;42.642;23.384;2023-04-08T07:53:47;94587.25;;;9.86;72.71
6425;BME280;12193;42.642;23.384;2023-04-08T07:56:16;94580.84;;;10.29;70.64
6425;BME280;12193;42.642;23.384;2023-04-08T07:58:47;94575.09;;;10.79;68.82
6425;BME280;12193;42.642;23.384;2023-04-08T08:01:21;94573.69;;;10.57;69.32
6425;BME280;12193;42.642;23.384;2023-04-08T08:03:51;94587.19;;;9.67;70.90
6425;BME280;12193;42.642;23.384;2023-04-08T08:06:21;94586.72;;;9.50;71.66
6425;BME280;12193;42.642;23.384;2023-04-08T08:08:50;94589.72;;;9.60;71.31
6425;BME280;12193;42.642;23.384;2023-04-08T08:11:20;94593.44;;;9.85;71.13
6425;BME280;12193;42.642;23.384;2023-04-08T08:13:49;94586.38;;;10.07;69.16
6425;BME280;12193;42.642;23.384;2023-04-08T08:16:21;94593.53;;;9.58;70.77
6425;BME280;12193;42.642;23.384;2023-04-08T08:18:52;94591.06;;;9.90;71.02
6425;BME280;12193;42.642;23.384;2023-04-08T08:21:21;94591.38;;;10.21;69.62
6425;BME280;12193;42.642;23.384;2023-04-08T08:23:51;94588.28;;;10.58;67.26
6425;BME280;12193;42.642;23.384;2023-04-08T08:26:22;94587.06;;;10.54;65.57
6425;BME280;12193;42.642;23.384;2023-04-08T08:28:51;94592.31;;;10.80;64.74
6425;BME280;12193;42.642;23.384;2023-04-08T08:31:23;94587.47;;;10.64;66.68
6425;BME280;12193;42.642;23.384;2023-04-08T08:33:53;94593.00;;;10.22;70.39
6425;BME280;12193;42.642;23.384;2023-04-08T08:36:22;94602.09;;;9.58;75.24
6425;BME280;12193;42.642;23.384;2023-04-08T08:38:52;94595.44;;;9.83;75.06
6425;BME280;12193;42.642;23.384;2023-04-08T08:41:22;94600.75;;;10.03;73.22
6425;BME280;12193;42.642;23.384;2023-04-08T08:43:51;94590.78;;;9.66;75.07
6425;BME280;12193;42.642;23.384;2023-04-08T08:46:24;94593.81;;;9.35;77.26
6425;BME280;12193;42.642;23.384;2023-04-08T08:48:54;94597.19;;;9.36;77.73
6425;BME280;12193;42.642;23.384;2023-04-08T08:51:26;94595.88;;;9.93;76.50
6425;BME280;12193;42.642;23.384;2023-04-08T08:53:56;94602.31;;;9.57;77.69
6425;BME280;12193;42.642;23.384;2023-04-08T08:56:26;94603.59;;;9.40;79.23
6425;BME280;12193;42.642;23.384;2023-04-08T08:58:55;94612.44;;;8.91;82.97
6425;BME280;12193;42.642;23.384;2023-04-08T09:01:38;94606.94;;;9.00;84.38
6425;BME280;12193;42.642;23.384;2023-04-08T09:04:12;94597.63;;;9.12;83.55
6425;BME280;12193;42.642;23.384;2023-04-08T09:06:43;94602.59;;;9.34;82.59
6425;BME280;12193;42.642;23.384;2023-04-08T09:09:15;94609.88;;;9.25;85.28
6425;BME280;12193;42.642;23.384;2023-04-08T09:11:45;94594.34;;;8.97;86.99
6425;BME280;12193;42.642;23.384;2023-04-08T09:14:19;94599.88;;;9.22;84.76
6425;BME280;12193;42.642;23.384;2023-04-08T09:16:52;94615.81;;;9.46;81.96
6425;BME280;12193;42.642;23.384;2023-04-08T09:19:21;94608.47;;;9.56;82.53
6425;BME280;12193;42.642;23.384;2023-04-08T09:22:06;94607.44;;;8.89;85.54
6425;BME280;12193;42.642;23.384;2023-04-08T09:24:36;94600.63;;;9.43;82.36
6425;BME280;12193;42.642;23.384;2023-04-08T09:27:06;94610.09;;;9.97;79.17
6425;BME280;12193;42.642;23.384;2023-04-08T09:29:35;94594.22;;;9.79;80.36
6425;BME280;12193;42.642;23.384;2023-04-08T09:32:07;94604.69;;;9.58;78.93
6425;BME280;12193;42.642;23.384;2023-04-08T09:34:37;94591.00;;;10.18;76.13
6425;BME280;12193;42.642;23.384;2023-04-08T09:37:06;94578.41;;;11.70;70.86
6425;BME280;12193;42.642;23.384;2023-04-08T09:39:35;94575.22;;;12.12;66.45
6425;BME280;12193;42.642;23.384;2023-04-08T09:42:09;94573.03;;;12.09;67.27
6425;BME280;12193;42.642;23.384;2023-04-08T09:44:41;94581.78;;;11.70;69.98
6425;BME280;12193;42.642;23.384;2023-04-08T09:47:18;94578.03;;;11.47;66.62
6425;BME280;12193;42.642;23.384;2023-04-08T09:49:54;94573.09;;;11.89;66.55
6425;BME280;12193;42.642;23.384;2023-04-08T09:52:32;94574.09;;;13.60;60.76
6425;BME280;12193;42.642;23.384;2023-04-08T09:55:03;94576.00;;;13.29;58.98
6425;BME280;12193;42.642;23.384;2023-04-08T09:57:39;94563.84;;;13.59;59.38
6425;BME280;12193;42.642;23.384;2023-04-08T10:00:13;94556.81;;;13.95;55.66
6425;BME280;12193;42.642;23.384;2023-04-08T10:02:53;94557.78;;;14.59;53.07
6425;BME280;12193;42.642;23.384;2023-04-08T10:05:24;94559.59;;;12.05;63.32
6425;BME280;12193;42.642;23.384;2023-04-08T10:07:55;94551.25;;;11.90;65.56
6425;BME280;12193;42.642;23.384;2023-04-08T10:10:25;94540.56;;;12.05;63.59
6425;BME280;12193;42.642;23.384;2023-04-08T10:12:55;94551.44;;;11.38;65.60
6425;BME280;12193;42.642;23.384;2023-04-08T10:15:25;94552.28;;;11.20;66.61
6425;BME280;12193;42.642;23.384;2023-04-08T10:18:30;94557.28;;;10.95;67.80
6425;BME280;12193;42.642;23.384;2023-04-08T10:21:02;94550.50;;;10.75;68.58
6425;BME280;12193;42.642;23.384;2023-04-08T10:23:52;94551.50;;;11.00;66.83
6425;BME280;12193;42.642;23.384;2023-04-08T10:26:34;94559.28;;;10.48;70.83
6425;BME280;12193;42.642;23.384;2023-04-08T10:32:29;94557.06;;;10.45;71.04
6425;BME280;12193;42.642;23.384;2023-04-08T10:35:00;94565.69;;;10.65;70.36
6425;BME280;12193;42.642;23.384;2023-04-08T10:37:30;94555.50;;;10.63;68.93
6425;BME280;12193;42.642;23.384;2023-04-08T10:39:59;94547.75;;;11.72;66.43
6425;BME280;12193;42.642;23.384;2023-04-08T10:42:29;94545.03;;;11.35;66.83
6425;BME280;12193;42.642;23.384;2023-04-08T10:45:01;94548.88;;;11.06;69.00
6425;BME280;12193;42.642;23.384;2023-04-08T10:47:30;94544.31;;;10.76;71.38
6425;BME280;12193;42.642;23.384;2023-04-08T10:50:12;94537.47;;;11.01;70.26
6425;BME280;12193;42.642;23.384;2023-04-08T10:52:46;94528.25;;;11.05;67.28
6425;BME280;12193;42.642;23.384;2023-04-08T10:55:15;94527.22;;;11.32;66.53
6425;BME280;12193;42.642;23.384;2023-04-08T10:57:45;94536.28;;;11.73;66.19
6425;BME280;12193;42.642;23.384;2023-04-08T11:00:17;94522.97;;;11.37;65.09
6425;BME280;12193;42.642;23.384;2023-04-08T11:02:47;94515.66;;;11.15;63.79
6425;BME280;12193;42.642;23.384;2023-04-08T11:05:21;94516.03;;;11.18;66.87
6425;BME280;12193;42.642;23.384;2023-04-08T11:07:51;94513.25;;;12.44;62.18
6425;BME280;12193;42.642;23.384;2023-04-08T11:10:21;94511.94;;;12.84;57.80
6425;BME280;12193;42.642;23.384;2023-04-08T11:12:50;94516.75;;;12.32;60.30
6425;BME280;12193;42.642;23.384;2023-04-08T11:15:20;94518.56;;;12.01;62.85
6425;BME280;12193;42.642;23.384;2023-04-08T11:17:50;94524.28;;;12.46;60.21
6425;BME280;12193;42.642;23.384;2023-04-08T11:20:22;94510.69;;;11.63;63.40
6425;BME280;12193;42.642;23.384;2023-04-08T11:22:53;94502.19;;;11.87;62.53
6425;BME280;12193;42.642;23.384;2023-04-08T11:25:23;94511.56;;;11.57;62.45
6425;BME280;12193;42.642;23.384;2023-04-08T11:27:52;94516.16;;;11.49;63.94
6425;BME280;12193;42.642;23.384;2023-04-08T11:30:22;94517.75;;;11.43;62.63
6425;BME280;12193;42.642;23.384;2023-04-08T11:32:53;94513.56;;;11.93;59.53
6425;BME280;12193;42.642;23.384;2023-04-08T11:35:27;94514.38;;;12.79;53.28
6425;BME280;12193;42.642;23.384;2023-04-08T11:37:57;94501.84;;;12.45;54.94
6425;BME280;12193;42.642;23.384;2023-04-08T11:40:27;94497.25;;;12.10;56.30
6425;BME280;12193;42.642;23.384;2023-04-08T11:42:56;94510.59;;;12.27;54.22
6425;BME280;12193;42.642;23.384;2023-04-08T11:45:26;94494.53;;;12.54;56.78
6425;BME280;12193;42.642;23.384;2023-04-08T11:47:56;94490.72;;;12.81;56.66
6425;BME280;12193;42.642;23.384;2023-04-08T11:50:29;94488.97;;;11.82;59.17
6425;BME280;12193;42.642;23.384;2023-04-08T11:52:58;94493.78;;;11.92;59.16
6425;BME280;12193;42.642;23.384;2023-04-08T11:55:29;94488.28;;;11.69;61.92
6425;BME280;12193;42.642;23.384;2023-04-08T11:58:02;94495.38;;;11.86;60.28
6425;BME280;12193;42.642;23.384;2023-04-08T12:00:32;94487.09;;;11.96;60.21
6425;BME280;12193;42.642;23.384;2023-04-08T12:03:02;94485.19;;;11.85;61.41
6425;BME280;12193;42.642;23.384;2023-04-08T12:05:34;94485.00;;;12.17;60.57
6425;BME280;12193;42.642;23.384;2023-04-08T12:08:04;94479.22;;;12.40;59.31
6425;BME280;12193;42.642;23.384;2023-04-08T12:10:33;94471.34;;;11.34;61.76
6425;BME280;12193;42.642;23.384;2023-04-08T12:13:03;94475.19;;;11.25;62.75
6425;BME280;12193;42.642;23.384;2023-04-08T12:15:32;94471.06;;;10.98;63.58
6425;BME280;12193;42.642;23.384;2023-04-08T12:18:01;94482.00;;;11.13;61.44
6425;BME280;12193;42.642;23.384;2023-04-08T12:20:34;94475.53;;;10.59;62.46
6425;BME280;12193;42.642;23.384;2023-04-08T12:23:03;94484.22;;;11.16;63.75
6425;BME280;12193;42.642;23.384;2023-04-08T12:25:33;94472.28;;;11.96;60.75
6425;BME280;12193;42.642;23.384;2023-04-08T12:28:02;94501.00;;;11.90;57.68
6425;BME280;12193;42.642;23.384;2023-04-08T12:30:31;94470.75;;;11.82;57.40
6425;BME280;12193;42.642;23.384;2023-04-08T12:33:01;94459.88;;;12.23;56.40
6425;BME280;12193;42.642;23.384;2023-04-08T12:35:31;94482.56;;;12.46;56.63
6425;BME280;12193;42.642;23.384;2023-04-08T12:38:03;94455.06;;;12.50;56.66
6425;BME280;12193;42.642;23.384;2023-04-08T12:40:32;94466.16;;;12.15;58.21
6425;BME280;12193;42.642;23.384;2023-04-08T12:43:02;94456.88;;;11.44;62.12
6425;BME280;12193;42.642;23.384;2023-04-08T12:45:31;94453.44;;;11.07;66.00
6425;BME280;12193;42.642;23.384;2023-04-08T12:48:01;94461.63;;;11.10;68.63
6425;BME280;12193;42.642;23.384;2023-04-08T12:50:31;94475.22;;;11.19;68.43
6425;BME280;12193;42.642;23.384;2023-04-08T12:53:03;94465.72;;;10.74;70.74
6425;BME280;12193;42.642;23.384;2023-04-08T12:55:32;94451.28;;;10.84;70.38
6425;BME280;12193;42.642;23.384;2023-04-08T12:58:01;94461.47;;;10.86;68.34
6425;BME280;12193;42.642;23.384;2023-04-08T13:00:31;94449.47;;;10.91;66.35
6425;BME280;12193;42.642;23.384;2023-04-08T13:03:03;94448.25;;;11.00;66.86
6425;BME280;12193;42.642;23.384;2023-04-08T13:05:32;94435.75;;;11.28;65.14
6425;BME280;12193;42.642;23.384;2023-04-08T13:08:05;94444.19;;;11.17;63.50
6425;BME280;12193;42.642;23.384;2023-04-08T13:10:34;94450.59;;;11.21;62.31
6425;BME280;12193;42.642;23.384;2023-04-08T13:13:03;94439.78;;;11.24;63.31
6425;BME280;12193;42.642;23.384;2023-04-08T13:15:33;94440.56;;;11.25;64.01
6425;BME280;12193;42.642;23.384;2023-04-08T13:18:03;94441.00;;;11.15;62.52
6425;BME280;12193;42.642;23.384;2023-04-08T13:20:33;94431.41;;;11.16;63.66
6425;BME280;12193;42.642;23.384;2023-04-08T13:23:05;94440.78;;;11.23;63.24
6425;BME280;12193;42.642;23.384;2023-04-08T13:25:34;94430.63;;;11.59;62.39
6425;BME280;12193;42.642;23.384;2023-04-08T13:28:03;94430.81;;;11.95;61.51
6425;BME280;12193;42.642;23.384;2023-04-08T13:30:33;94430.09;;;12.12;61.38
6425;BME280;12193;42.642;23.384;2023-04-08T13:33:03;94432.22;;;12.22;61.12
6425;BME280;12193;42.642;23.384;2023-04-08T13:35:32;94435.28;;;12.43;60.02
6425;BME280;12193;42.642;23.384;2023-04-08T13:38:04;94434.00;;;12.52;60.26
6425;BME280;12193;42.642;23.384;2023-04-08T13:40:33;94434.94;;;12.33;60.84
6425;BME280;12193;42.642;23.384;2023-04-08T13:43:03;94434.31;;;12.13;62.00
6425;BME280;12193;42.642;23.384;2023-04-08T13:45:33;94442.41;;;12.54;60.47
6425;BME280;12193;42.642;23.384;2023-04-08T13:48:03;94443.88;;;12.43;60.99
6425;BME280;12193;42.642;23.384;2023-04-08T13:50:32;94440.06;;;12.22;59.62
6425;BME280;12193;42.642;23.384;2023-04-08T13:53:04;94442.28;;;11.56;60.31
6425;BME280;12193;42.642;23.384;2023-04-08T13:55:34;94450.72;;;11.39;61.75
6425;BME280;12193;42.642;23.384;2023-04-08T13:58:03;94439.56;;;11.26;63.06
6425;BME280;12193;42.642;23.384;2023-04-08T14:00:32;94451.88;;;10.93;67.39
6425;BME280;12193;42.642;23.384;2023-04-08T14:03:02;94450.84;;;11.00;67.56
6425;BME280;12193;42.642;23.384;2023-04-08T14:05:32;94451.53;;;10.44;70.35
6425;BME280;12193;42.642;23.384;2023-04-08T14:08:04;94446.97;;;10.27;77.71
6425;BME280;12193;42.642;23.384;2023-04-08T14:10:33;94452.34;;;10.12;83.37
6425;BME280;12193;42.642;23.384;2023-04-08T14:13:03;94454.31;;;9.97;83.66
6425;BME280;12193;42.642;23.384;2023-04-08T14:15:32;94451.28;;;9.87;79.68
6425;BME280;12193;42.642;23.384;2023-04-08T14:18:01;94455.34;;;10.16;82.09
6425;BME280;12193;42.642;23.384;2023-04-08T14:20:31;94446.34;;;10.31;82.16
6425;BME280;12193;42.642;23.384;2023-04-08T14:23:01;94446.94;;;10.46;83.61
6425;BME280;12193;42.642;23.384;2023-04-08T14:25:33;94442.94;;;10.43;84.94
6425;BME280;12193;42.642;23.384;2023-04-08T14:28:02;94440.34;;;10.24;87.61
6425;BME280;12193;42.642;23.384;2023-04-08T14:30:31;94443.94;;;10.30;89.78
6425;BME280;12193;42.642;23.384;2023-04-08T14:33:01;94444.69;;;9.98;92.20
6425;BME280;12193;42.642;23.384;2023-04-08T14:35:30;94448.63;;;9.61;92.00
6425;BME280;12193;42.642;23.384;2023-04-08T14:37:59;94441.22;;;9.52;95.34
6425;BME280;12193;42.642;23.384;2023-04-08T14:40:29;94436.25;;;9.63;93.33
6425;BME280;12193;42.642;23.384;2023-04-08T14:43:01;94439.28;;;9.67;93.30
6425;BME280;12193;42.642;23.384;2023-04-08T14:45:30;94439.69;;;9.83;90.24
6425;BME280;12193;42.642;23.384;2023-04-08T14:47:59;94449.06;;;9.84;88.50
6425;BME280;12193;42.642;23.384;2023-04-08T14:50:29;94447.69;;;9.88;87.73
6425;BME280;12193;42.642;23.384;2023-04-08T14:52:58;94439.28;;;9.86;87.07
6425;BME280;12193;42.642;23.384;2023-04-08T14:55:28;94433.13;;;10.00;86.70
6425;BME280;12193;42.642;23.384;2023-04-08T14:58:00;94438.53;;;10.05;85.15
6425;BME280;12193;42.642;23.384;2023-04-08T15:00:29;94430.56;;;10.20;82.44
6425;BME280;12193;42.642;23.384;2023-04-08T15:02:58;94435.38;;;10.16;81.48
6425;BME280;12193;42.642;23.384;2023-04-08T15:05:28;94436.16;;;10.17;82.31
6425;BME280;12193;42.642;23.384;2023-04-08T15:07:57;94436.53;;;10.20;82.84
6425;BME280;12193;42.642;23.384;2023-04-08T15:10:27;94437.34;;;10.01;84.29
6425;BME280;12193;42.642;23.384;2023-04-08T15:12:59;94441.75;;;10.20;83.24
6425;BME280;12193;42.642;23.384;2023-04-08T15:15:29;94439.53;;;10.04;83.86
6425;BME280;12193;42.642;23.384;2023-04-08T15:17:58;94442.28;;;9.90;83.58
6425;BME280;12193;42.642;23.384;2023-04-08T15:20:27;94451.53;;;10.12;82.90
6425;BME280;12193;42.642;23.384;2023-04-08T15:22:57;94442.34;;;10.09;82.44
6425;BME280;12193;42.642;23.384;2023-04-08T15:25:26;94442.94;;;10.05;82.55
6425;BME280;12193;42.642;23.384;2023-04-08T15:27:55;94448.06;;;9.85;84.08
6425;BME280;12193;42.642;23.384;2023-04-08T15:30:28;94441.94;;;9.99;82.81
6425;BME280;12193;42.642;23.384;2023-04-08T15:33:01;94442.56;;;10.21;82.28
6425;BME280;12193;42.642;23.384;2023-04-08T15:35:31;94450.75;;;10.18;81.74
6425;BME280;12193;42.642;23.384;2023-04-08T15:38:01;94446.75;;;10.28;81.42
6425;BME280;12193;42.642;23.384;2023-04-08T15:40:32;94442.34;;;10.35;80.41
6425;BME280;12193;42.642;23.384;2023-04-08T15:43:01;94435.16;;;10.37;80.14
6425;BME280;12193;42.642;23.384;2023-04-08T15:45:41;94443.75;;;10.37;79.63
6425;BME280;12193;42.642;23.384;2023-04-08T15:48:11;94436.94;;;10.36;79.10
6425;BME280;12193;42.642;23.384;2023-04-08T15:50:41;94435.75;;;10.20;80.24
6425;BME280;12193;42.642;23.384;2023-04-08T15:53:10;94435.53;;;10.21;80.29
6425;BME280;12193;42.642;23.384;2023-04-08T15:55:40;94444.75;;;10.36;79.89
6425;BME280;12193;42.642;23.384;2023-04-08T15:58:10;94447.16;;;10.44;79.51
6425;BME280;12193;42.642;23.384;2023-04-08T16:00:42;94448.56;;;10.34;80.58
6425;BME280;12193;42.642;23.384;2023-04-08T16:03:11;94448.94;;;10.44;80.29
6425;BME280;12193;42.642;23.384;2023-04-08T16:05:41;94450.53;;;10.58;79.56
6425;BME280;12193;42.642;23.384;2023-04-08T16:08:10;94458.34;;;10.38;79.85
6425;BME280;12193;42.642;23.384;2023-04-08T16:10:39;94448.13;;;10.31;80.42
6425;BME280;12193;42.642;23.384;2023-04-08T16:13:09;94458.53;;;10.50;79.30
6425;BME280;12193;42.642;23.384;2023-04-08T16:15:38;94463.72;;;10.50;78.73
6425;BME280;12193;42.642;23.384;2023-04-08T16:18:10;94456.13;;;10.42;79.67
6425;BME280;12193;42.642;23.384;2023-04-08T16:20:40;94465.13;;;10.39;79.75
6425;BME280;12193;42.642;23.384;2023-04-08T16:23:09;94468.53;;;10.27;81.23
6425;BME280;12193;42.642;23.384;2023-04-08T16:25:40;94463.50;;;10.00;83.87